createdAt,value
2022-09-26T01:28:19.242Z,6.79
2022-09-26T01:53:19.506Z,6.44
2022-09-26T03:00:46.394Z,6.26
2022-09-26T03:16:02.975Z,6.53
2022-09-26T03:40:13.395Z,7.00
2022-09-26T03:48:21.214Z,7.05
2022-09-26T03:56:48.862Z,7.13
2022-09-26T04:00:44.393Z,7.14
2022-09-26T04:04:19.572Z,7.07
2022-09-26T04:07:29.671Z,7.05
2022-09-26T04:18:52.514Z,6.99
2022-09-26T04:22:45.360Z,7.01
2022-09-26T04:29:34.700Z,7.09
2022-09-26T04:33:02.153Z,7.11
2022-09-26T04:40:43.418Z,7.12
2022-09-26T05:00:49.171Z,7.18
2022-09-26T05:14:07.466Z,7.18
2022-09-26T05:15:44.224Z,7.20
2022-09-26T05:18:43.699Z,7.23
2022-09-26T05:39:21.978Z,7.49
2022-09-26T05:42:44.648Z,7.54
2022-09-26T05:46:18.639Z,7.58
2022-09-26T05:53:32.276Z,7.66
2022-09-26T05:58:08.433Z,7.67
2022-09-26T06:11:15.472Z,7.88
2022-09-26T06:16:55.594Z,7.89
2022-09-26T06:20:13.576Z,7.87
2022-09-26T06:47:25.743Z,8.07
2022-09-26T06:58:33.564Z,8.26
2022-09-26T07:11:11.110Z,8.24
2022-09-26T07:16:35.797Z,8.50
2022-09-26T07:19:40.879Z,8.62
2022-09-26T07:27:45.326Z,8.81
2022-09-26T07:30:28.133Z,8.93
2022-09-26T07:38:03.653Z,9.20
2022-09-26T07:50:21.946Z,9.95
2022-09-26T07:55:13.592Z,10.38
2022-09-26T08:15:02.978Z,11.50
2022-09-26T08:22:57.243Z,13.05
2022-09-26T08:43:20.159Z,16.11
2022-09-26T08:51:35.189Z,15.21
2022-09-26T09:07:47.487Z,16.18
2022-09-26T09:53:30.716Z,13.51
2022-09-26T09:56:39.301Z,13.50
2022-09-26T09:59:30.681Z,13.54
2022-09-26T10:02:29.131Z,13.62
2022-09-26T10:10:05.841Z,14.49
2022-09-26T10:17:33.248Z,14.83
2022-09-26T10:21:15.557Z,14.75
2022-09-26T10:24:44.751Z,14.61
2022-09-26T10:27:48.221Z,14.54
2022-09-26T10:30:50.622Z,14.35
2022-09-26T10:34:01.095Z,14.20
2022-09-26T10:37:27.531Z,14.22
2022-09-26T10:44:01.574Z,14.59
2022-09-26T10:47:30.878Z,14.64
2022-09-26T10:57:49.762Z,15.57
2022-09-26T11:04:14.032Z,15.09
2022-09-26T11:07:28.529Z,14.74
2022-09-26T11:10:57.071Z,14.59
2022-09-26T11:14:17.551Z,14.40
2022-09-26T11:17:20.385Z,14.01
2022-09-26T11:34:27.373Z,12.95
2022-09-26T11:37:57.000Z,13.01
2022-09-26T11:41:03.227Z,13.41
2022-09-26T11:47:42.152Z,14.31
2022-09-26T11:50:43.788Z,14.35
2022-09-26T11:54:02.947Z,14.45
2022-09-26T11:57:38.500Z,14.44
2022-09-26T12:03:34.218Z,14.25
2022-09-26T12:10:54.945Z,14.09
2022-09-26T12:13:46.806Z,14.23
2022-09-26T12:24:21.638Z,14.46
2022-09-26T12:34:22.868Z,14.51
2022-09-26T12:40:49.169Z,14.54
2022-09-26T12:44:17.332Z,14.32
2022-09-26T12:51:51.065Z,14.30
2022-09-26T12:54:48.218Z,14.25
2022-09-26T12:58:17.931Z,14.21
2022-09-26T13:05:14.399Z,13.85
2022-09-26T13:08:15.954Z,13.55
2022-09-26T13:11:18.710Z,13.26
2022-09-26T13:18:11.623Z,12.74
2022-09-26T13:21:10.845Z,12.65
2022-09-26T13:23:59.992Z,12.62
2022-09-26T13:26:47.340Z,12.57
2022-09-26T13:30:01.027Z,12.54
2022-09-26T13:36:36.729Z,12.52
2022-09-26T13:39:57.028Z,12.45
2022-09-26T13:42:50.700Z,12.34
2022-09-26T13:45:41.197Z,12.23
2022-09-26T13:48:27.990Z,12.20
2022-09-26T13:51:47.020Z,12.19
2022-09-26T13:54:57.719Z,12.20
2022-09-26T13:58:12.612Z,12.20
2022-09-26T14:01:39.062Z,12.18
2022-09-26T14:04:40.362Z,12.08
2022-09-26T14:08:05.048Z,11.99
2022-09-26T14:11:11.734Z,11.98
2022-09-26T14:13:56.235Z,12.04
2022-09-26T14:16:40.020Z,12.08
2022-09-26T14:19:37.822Z,12.16
2022-09-26T14:22:45.538Z,12.20
2022-09-26T14:25:51.200Z,12.25
2022-09-26T14:28:37.940Z,12.38
2022-09-26T14:31:40.183Z,12.58
2022-09-26T14:34:26.959Z,12.74
2022-09-26T14:37:20.868Z,12.86
2022-09-26T14:40:30.182Z,12.95
2022-09-26T14:43:09.099Z,13.05
2022-09-26T14:50:27.252Z,12.91
2022-09-26T14:53:06.506Z,12.79
2022-09-26T14:55:41.374Z,12.71
2022-09-26T14:59:30.546Z,12.63
2022-09-26T15:06:31.741Z,12.37
2022-09-26T15:09:12.034Z,12.33
2022-09-26T15:11:49.527Z,12.35
2022-09-26T15:14:27.124Z,12.38
2022-09-26T15:17:01.303Z,12.37
2022-09-26T15:24:27.810Z,12.33
2022-09-26T15:27:11.901Z,12.26
2022-09-26T15:30:06.654Z,12.22
2022-09-26T15:35:39.531Z,12.15
2022-09-26T15:38:47.063Z,12.10
2022-09-26T15:41:35.733Z,12.02
2022-09-26T15:50:11.308Z,11.83
2022-09-26T15:53:03.682Z,11.74
2022-09-26T15:56:46.685Z,11.67
2022-09-26T16:06:56.986Z,11.54
2022-09-26T16:10:26.568Z,11.45
2022-09-26T16:20:06.607Z,11.27
2022-09-26T16:22:51.909Z,11.23
2022-09-26T16:25:43.327Z,11.18
2022-09-26T16:29:03.641Z,11.13
2022-09-26T16:42:19.086Z,11.03
2022-09-26T16:45:43.311Z,11.00
2022-09-26T16:50:25.665Z,10.97
2022-09-26T17:20:27.816Z,10.13
2022-09-26T17:23:42.281Z,10.09
2022-09-26T17:35:07.662Z,9.90
2022-09-26T17:41:28.571Z,9.89
2022-09-26T17:47:13.727Z,9.83
2022-09-26T17:54:27.673Z,9.81
2022-09-26T17:57:07.407Z,9.78
2022-09-26T17:59:41.933Z,9.76
2022-09-26T18:02:28.436Z,9.77
2022-09-26T18:12:28.176Z,9.72
2022-09-26T18:20:42.595Z,9.65
2022-09-26T18:26:45.943Z,9.62
2022-09-26T18:29:38.552Z,9.58
2022-09-26T18:32:15.203Z,9.55
2022-09-26T18:34:50.459Z,9.49
2022-09-26T18:37:22.863Z,9.43
2022-09-26T18:40:00.151Z,9.36
2022-09-26T18:42:46.722Z,9.29
2022-09-26T18:45:29.262Z,9.23
2022-09-26T18:48:37.579Z,9.14
2022-09-26T18:52:20.133Z,9.00
2022-09-26T18:55:51.264Z,8.92
2022-09-26T18:58:57.153Z,8.82
2022-09-26T19:02:35.303Z,8.72
2022-09-26T19:16:06.531Z,8.54
2022-09-26T19:19:19.285Z,8.49
2022-09-26T19:23:29.461Z,8.49
2022-09-26T19:42:36.208Z,8.45
2022-09-26T19:48:38.527Z,8.39
2022-09-26T19:51:23.320Z,8.39
2022-09-26T19:53:56.913Z,8.35
2022-09-26T19:56:40.428Z,8.42
2022-09-26T19:59:25.360Z,8.44
2022-09-26T20:02:16.630Z,8.45
2022-09-26T20:04:55.912Z,8.43
2022-09-26T20:07:38.083Z,8.43
2022-09-26T20:10:18.174Z,8.41
2022-09-26T20:12:54.591Z,8.41
2022-09-26T20:15:37.826Z,8.41
2022-09-26T20:18:28.396Z,8.40
2022-09-26T20:21:09.954Z,8.38
2022-09-26T20:23:53.931Z,8.39
2022-09-26T20:26:24.834Z,8.38
2022-09-26T20:28:55.498Z,8.38
2022-09-26T20:31:30.017Z,8.36
2022-09-26T20:34:21.793Z,8.35
2022-09-26T20:36:53.293Z,8.34
2022-09-26T20:39:26.005Z,8.34
2022-09-26T20:41:58.736Z,8.35
2022-09-26T20:44:34.098Z,8.36
2022-09-26T20:47:06.436Z,8.37
2022-09-26T20:49:48.126Z,8.35
2022-09-26T20:52:22.418Z,8.32
2022-09-26T20:54:53.323Z,8.31
2022-09-26T20:57:23.901Z,8.29
2022-09-26T21:00:00.035Z,8.29
2022-09-26T21:02:38.232Z,8.27
2022-09-26T21:05:17.686Z,8.24
2022-09-26T21:07:48.383Z,8.23
2022-09-26T21:10:27.243Z,8.23
2022-09-26T21:12:58.020Z,8.20
2022-09-26T21:15:31.089Z,8.18
2022-09-26T21:18:03.955Z,8.17
2022-09-26T21:20:35.171Z,8.17
2022-09-26T21:23:24.280Z,8.16
2022-09-26T21:25:54.629Z,8.17
2022-09-26T21:28:27.523Z,8.17
2022-09-26T21:31:00.383Z,8.16
2022-09-26T21:33:29.331Z,8.16
2022-09-26T21:36:00.345Z,8.13
2022-09-26T21:38:30.845Z,8.12
2022-09-26T21:41:03.799Z,8.12
2022-09-26T21:43:39.008Z,8.11
2022-09-26T21:46:09.772Z,8.12
2022-09-26T21:48:40.154Z,8.12
2022-09-26T21:51:13.797Z,8.13
2022-09-26T21:53:49.198Z,8.13
2022-09-26T21:56:22.155Z,8.13
2022-09-26T21:58:51.134Z,8.14
2022-09-26T22:01:21.817Z,8.15
2022-09-26T22:03:53.179Z,8.17
2022-09-26T22:06:23.564Z,8.17
2022-09-26T22:08:54.372Z,8.17
2022-09-26T22:11:24.734Z,8.17
2022-09-26T22:13:56.309Z,8.18
2022-09-26T22:16:27.728Z,8.19
2022-09-26T22:18:58.262Z,8.19
2022-09-26T22:21:28.994Z,8.21
2022-09-26T22:24:00.073Z,8.21
2022-09-26T22:26:30.489Z,8.20
2022-09-26T22:29:00.929Z,8.20
2022-09-26T22:31:31.373Z,8.21
2022-09-26T22:34:02.351Z,8.21
2022-09-26T22:36:33.308Z,8.21
2022-09-26T22:39:03.867Z,8.22
2022-09-26T22:41:34.431Z,8.21
2022-09-26T22:44:05.004Z,8.19
2022-09-26T22:46:36.305Z,8.19
2022-09-26T22:49:07.045Z,8.19
2022-09-26T22:51:37.552Z,8.19
2022-09-26T22:54:08.004Z,8.20
2022-09-26T22:56:38.404Z,8.18
2022-09-26T22:59:08.747Z,8.16
2022-09-26T23:01:39.173Z,8.16
2022-09-26T23:04:09.790Z,8.18
2022-09-26T23:06:40.137Z,8.18
2022-09-26T23:09:10.534Z,8.17
2022-09-26T23:11:40.971Z,8.15
2022-09-26T23:14:11.453Z,8.13
2022-09-26T23:16:42.419Z,8.14
2022-09-26T23:19:12.969Z,8.16
2022-09-26T23:21:43.426Z,8.17
2022-09-26T23:24:13.905Z,8.18
2022-09-26T23:26:44.278Z,8.19
2022-09-26T23:29:14.662Z,8.20
2022-09-26T23:31:45.126Z,8.19
2022-09-26T23:34:15.537Z,8.17
2022-09-26T23:36:46.909Z,8.18
2022-09-26T23:39:17.479Z,8.19
2022-09-26T23:41:48.064Z,8.20
2022-09-26T23:44:18.462Z,8.20
2022-09-26T23:46:49.099Z,8.21
2022-09-26T23:49:22.323Z,8.23
2022-09-26T23:51:52.980Z,8.24
2022-09-26T23:54:23.333Z,8.25
2022-09-26T23:56:53.846Z,8.27
2022-09-26T23:59:25.344Z,8.30
